首页
METAR-TAF:

METAR-TAF

机场 :

布瓊布拉國際機場

布琼布拉, 布隆迪

纬度: 03-19S, 经度: 029-19E, 海拔: 782米

当前天气观测

该预报发布于1小时和5分钟前的04:00 UTC
风速4节,风向
温度 19°C
湿度 83%
气压 1016 hPa
能見度: 7000

METAR: HBBA 150400Z 36004KT 7000 NSC 19/16 Q1016 NOSIG

时间: 07:05 (05:05 UTC)

预报

该预报发布于6小时和5分钟前的23:00 UTC
预报有效从15日的 00点(UTC)到 16日的 06点(UTC)
风速3节,风向
能见度10公里或以上
少量云层高于3000英尺
散云层高于10000英尺
成为
从 15日的 08点(UTC)到 15日的 10点(UTC)
风速9节,风向,有时为23节阵风
少量云层高于3000英尺
成为
从 15日的 20点(UTC)到 15日的 22点(UTC)
风速2节,风向
能见度10公里或以上
1500米以下无云,无积雨云
成为
从 16日的 00点(UTC)到 16日的 02点(UTC)
风速3节,风向
能见度10公里或以上
少量云层高于2800英尺

TAF: HBBA 142300Z 1500/1606 36003KT 9999 FEW030 SCT100 BECMG 1508/1510 18009G23KT FEW030 BECMG 1520/1522 09002KT CAVOK BECMG 1600/1602 36003KT 9999 FEW028

超过4000个机场的气象观测和天气预报(METAR&TAF报告)。

可查询的气象台以黄色和红色小点在地图上表示。

将鼠标移到小点上方,可查看气象台名称。

然后点击查看天气观测和预报。

如需切换地图:点击带黑十字的绿色按钮放大地图;点击带横线的绿色按钮缩小地图;或者点击绿色箭头查看邻近地区的地图。


METAR-TAF: